Llanes en Asturias

latitud = 43° 25' 13''N | longitud = 004° 44' 53''W
10 metros sobre el nivel del mar | datos mensuales

Fecha, hora, temperatura, viento dirección y velocidad, humedad y presión.

  • 21-01-2018 02:00:00 | 14.90°C | Noroeste |12.00 km/h | 72.00% | 1025.10 hPa
  • 21-01-2018 01:00:00 | 15.20°C | Noroeste |14.00 km/h | 70.00% | 1024.80 hPa
  • 21-01-2018 00:00:00 | 14.70°C | Noroeste |18.00 km/h | 73.00% | 1024.50 hPa
  • 20-01-2018 23:00:00 | 15.60°C | Noroeste |18.00 km/h | 68.00% | 1024.00 hPa
  • 20-01-2018 22:00:00 | 16.40°C | Noroeste |15.00 km/h | 61.00% | 1023.60 hPa
  • 20-01-2018 21:00:00 | 15.50°C | Noroeste |21.00 km/h | 67.00% | 1023.30 hPa
  • 20-01-2018 20:00:00 | 15.40°C | Noroeste |22.00 km/h | 69.00% | 1023.00 hPa
  • 20-01-2018 19:00:00 | 18.30°C | Oeste |17.00 km/h | 51.00% | 1022.30 hPa
  • 20-01-2018 18:00:00 | 18.60°C | Oeste |20.00 km/h | 50.00% | 1021.60 hPa
  • 20-01-2018 17:00:00 | 18.40°C | Oeste |17.00 km/h | 52.00% | 1020.90 hPa
  • 20-01-2018 16:00:00 | 18.80°C | Oeste |17.00 km/h | 50.00% | 1020.30 hPa
  • 20-01-2018 15:00:00 | 19.00°C | Oeste |18.00 km/h | 49.00% | 1019.80 hPa
  • 20-01-2018 14:00:00 | 18.90°C | Oeste |26.00 km/h | 48.00% | 1020.40 hPa
  • 20-01-2018 13:00:00 | 18.40°C | Oeste |23.00 km/h | 50.00% | 1021.20 hPa
  • 20-01-2018 12:00:00 | 17.70°C | Oeste |23.00 km/h | 50.00% | 1021.50 hPa
  • 20-01-2018 11:00:00 | 17.40°C | Oeste |25.00 km/h | 48.00% | 1021.30 hPa
  • 20-01-2018 10:00:00 | 15.80°C | Oeste |26.00 km/h | 46.00% | 1021.40 hPa
  • 20-01-2018 09:00:00 | 12.00°C | Oeste |14.00 km/h | 51.00% | 1021.60 hPa
  • 20-01-2018 08:00:00 | 11.60°C | Noroeste |21.00 km/h | 59.00% | 1021.60 hPa
  • 20-01-2018 07:00:00 | 10.40°C | Oeste |6.00 km/h | 64.00% | 1021.30 hPa
  • 20-01-2018 06:00:00 | 10.40°C | Sudoeste |5.00 km/h | 68.00% | 1021.40 hPa
  • 20-01-2018 05:00:00 | 10.50°C | Sur |3.00 km/h | 67.00% | 1021.50 hPa
  • 20-01-2018 04:00:00 | 10.60°C | Sudoeste |5.00 km/h | 64.00% | 1022.30 hPa
  • 20-01-2018 03:00:00 | 10.90°C | Sudoeste |5.00 km/h | 64.00% | 1023.00 hPa